createdAt,value
2023-03-15T00:01:58.795Z,0.30
2023-03-15T00:06:51.063Z,0.40
2023-03-15T00:11:42.857Z,1.17
2023-03-15T00:16:34.717Z,0.70
2023-03-15T00:33:58.036Z,0.40
2023-03-15T00:38:51.368Z,0.60
2023-03-15T00:43:43.771Z,0.40
2023-03-15T00:48:36.573Z,0.30
2023-03-15T00:53:28.347Z,0.50
2023-03-15T00:58:22.244Z,0.50
2023-03-15T01:03:15.215Z,0.40
2023-03-15T01:08:06.939Z,0.50
2023-03-15T01:12:59.908Z,0.40
2023-03-15T01:17:51.463Z,0.30
2023-03-15T01:22:43.112Z,0.30
2023-03-15T01:27:34.952Z,0.40
2023-03-15T01:32:26.984Z,0.60
2023-03-15T01:37:18.824Z,0.70
2023-03-15T01:42:11.319Z,0.70
2023-03-15T01:47:02.940Z,0.65
2023-03-15T01:52:17.975Z,0.35
2023-03-15T01:57:24.455Z,0.30
2023-03-15T02:02:16.457Z,0.35
2023-03-15T02:07:09.687Z,0.20
2023-03-15T02:12:02.528Z,0.20
2023-03-15T02:16:54.151Z,0.38
2023-03-15T02:21:58.485Z,0.50
2023-03-15T02:26:55.974Z,0.25
2023-03-15T02:31:50.071Z,0.20
2023-03-15T02:36:41.742Z,0.40
2023-03-15T02:41:43.373Z,0.20
2023-03-15T02:46:36.197Z,0.20
2023-03-15T02:51:29.731Z,0.30
2023-03-15T02:56:21.627Z,0.20
2023-03-15T03:01:14.105Z,0.20
2023-03-15T03:06:06.966Z,0.10
2023-03-15T03:10:58.596Z,0.20
2023-03-15T03:15:58.618Z,0.13
2023-03-15T03:20:50.240Z,0.20
2023-03-15T03:25:41.895Z,0.20
2023-03-15T03:30:35.585Z,0.30
2023-03-15T03:35:27.488Z,0.30
2023-03-15T03:40:19.298Z,0.30
2023-03-15T03:45:11.409Z,0.20
2023-03-15T03:50:03.155Z,0.20
2023-03-15T03:54:54.766Z,0.25
2023-03-15T03:59:46.455Z,0.28
2023-03-15T04:04:41.440Z,0.20
2023-03-15T04:09:37.577Z,0.20
2023-03-15T04:14:29.528Z,0.20
2023-03-15T04:19:21.106Z,0.10
2023-03-15T04:24:13.306Z,0.20
2023-03-15T04:29:05.833Z,0.30
2023-03-15T04:33:57.439Z,0.52
2023-03-15T04:38:49.728Z,0.40
2023-03-15T04:43:41.533Z,0.10
2023-03-15T04:48:33.274Z,0.20
2023-03-15T04:53:24.835Z,0.10
2023-03-15T04:58:17.122Z,0.10
2023-03-15T05:03:08.814Z,0.15
2023-03-15T05:08:01.227Z,0.20
2023-03-15T05:12:52.812Z,0.10
2023-03-15T05:17:46.603Z,0.30
2023-03-15T05:22:39.395Z,0.30
2023-03-15T05:27:32.772Z,0.40
2023-03-15T05:32:26.963Z,0.40
2023-03-15T05:37:18.544Z,0.50
2023-03-15T05:42:10.127Z,0.50
2023-03-15T05:47:01.711Z,0.40
2023-03-15T05:51:53.363Z,0.40
2023-03-15T05:56:44.909Z,0.50
2023-03-15T06:01:36.651Z,0.40
2023-03-15T06:06:28.250Z,0.60
2023-03-15T06:11:19.941Z,0.30
2023-03-15T06:16:11.664Z,0.30
2023-03-15T06:21:03.947Z,0.30
2023-03-15T06:25:57.300Z,0.50
2023-03-15T06:30:48.902Z,0.45
2023-03-15T06:35:41.503Z,0.30
2023-03-15T06:40:33.165Z,0.25
2023-03-15T06:45:24.769Z,0.60
2023-03-15T06:50:17.120Z,0.40
2023-03-15T06:55:10.370Z,0.40
2023-03-15T07:00:01.946Z,0.43
2023-03-15T07:04:53.750Z,0.40
2023-03-15T07:09:45.432Z,0.40
2023-03-15T07:14:37.151Z,0.45
2023-03-15T07:19:29.123Z,0.50
2023-03-15T07:24:20.790Z,0.40
2023-03-15T07:29:12.401Z,0.30
2023-03-15T07:34:04.268Z,0.32
2023-03-15T07:38:55.857Z,0.30
2023-03-15T07:43:47.391Z,0.38
2023-03-15T07:48:39.098Z,0.40
2023-03-15T07:53:30.714Z,0.40
2023-03-15T07:58:22.437Z,0.50
2023-03-15T08:03:14.343Z,0.40
2023-03-15T08:08:06.529Z,0.30
2023-03-15T08:12:58.184Z,0.45
2023-03-15T08:17:49.836Z,0.40
2023-03-15T08:22:44.801Z,0.40
2023-03-15T08:27:36.416Z,0.50
2023-03-15T08:32:28.039Z,0.50
2023-03-15T08:37:20.196Z,0.40
2023-03-15T08:42:12.083Z,0.55
2023-03-15T08:47:05.285Z,0.40
2023-03-15T08:51:57.117Z,0.40
2023-03-15T08:56:48.789Z,0.35
2023-03-15T09:01:40.534Z,0.32
2023-03-15T09:06:32.179Z,0.30
2023-03-15T09:11:23.900Z,0.28
2023-03-15T09:16:15.794Z,0.80
2023-03-15T09:21:07.457Z,0.30
2023-03-15T09:25:59.393Z,0.32
2023-03-15T09:30:51.371Z,0.20
2023-03-15T09:35:43.230Z,0.55
2023-03-15T09:40:40.311Z,0.45
2023-03-15T09:45:32.312Z,0.45
2023-03-15T09:50:31.843Z,0.77
2023-03-15T09:55:27.102Z,0.40
2023-03-15T10:00:31.069Z,0.40
2023-03-15T10:05:40.273Z,0.30
2023-03-15T10:10:36.974Z,1.13
2023-03-15T10:16:04.084Z,0.30
2023-03-15T10:21:07.646Z,0.30
2023-03-15T10:26:00.303Z,0.60
2023-03-15T10:30:52.851Z,0.95
2023-03-15T10:35:44.637Z,0.40
2023-03-15T10:40:59.836Z,0.50
2023-03-15T10:46:04.742Z,0.43
2023-03-15T10:50:57.934Z,0.55
2023-03-15T10:56:07.751Z,0.50
2023-03-15T11:05:58.749Z,0.30
2023-03-15T11:11:00.302Z,0.55
2023-03-15T11:16:04.365Z,0.43
2023-03-15T11:20:57.283Z,0.40
2023-03-15T11:25:49.659Z,0.50
2023-03-15T11:30:41.788Z,0.43
2023-03-15T11:35:41.025Z,0.40
2023-03-15T11:40:48.107Z,0.52
2023-03-15T11:45:44.982Z,0.55
2023-03-15T11:50:39.199Z,0.40
2023-03-15T11:55:32.882Z,0.30
2023-03-15T12:00:36.525Z,0.30
2023-03-15T12:06:21.180Z,0.22
2023-03-15T12:11:34.447Z,0.20
2023-03-15T12:16:28.972Z,0.20
2023-03-15T12:21:26.601Z,0.65
2023-03-15T12:26:30.918Z,0.23
2023-03-15T12:31:23.026Z,0.40
2023-03-15T12:36:42.110Z,0.20
2023-03-15T12:41:35.589Z,0.30
2023-03-15T12:46:39.497Z,0.30
2023-03-15T12:52:01.326Z,0.30
2023-03-15T12:57:07.250Z,0.30
2023-03-15T13:02:01.515Z,0.30
2023-03-15T13:07:48.936Z,0.30
2023-03-15T13:13:21.304Z,0.30
2023-03-15T13:18:18.613Z,0.20
2023-03-15T13:23:27.550Z,0.20
2023-03-15T13:28:24.974Z,0.20
2023-03-15T13:33:31.702Z,0.50
2023-03-15T13:38:33.423Z,0.30
2023-03-15T13:43:37.000Z,0.40
2023-03-15T13:48:42.247Z,0.38
2023-03-15T13:53:48.967Z,0.40
2023-03-15T13:58:43.282Z,0.50
2023-03-15T14:03:35.390Z,0.43
2023-03-15T14:08:33.449Z,0.38
2023-03-15T14:13:29.473Z,0.30
2023-03-15T14:18:26.336Z,1.15
2023-03-15T14:23:22.068Z,0.22
2023-03-15T14:28:16.762Z,0.30
2023-03-15T14:33:43.104Z,0.32
2023-03-15T14:38:37.780Z,0.40
2023-03-15T14:43:29.510Z,0.60
2023-03-15T14:48:27.700Z,0.70
2023-03-15T14:58:18.174Z,0.70
2023-03-15T15:03:29.638Z,0.88
2023-03-15T15:08:24.488Z,0.80
2023-03-15T15:13:25.957Z,0.60
2023-03-15T15:18:18.296Z,0.68
2023-03-15T15:23:15.746Z,0.95
2023-03-15T15:28:08.642Z,0.80
2023-03-15T15:33:00.399Z,0.70
2023-03-15T15:37:52.491Z,1.00
2023-03-15T15:42:47.615Z,1.30
2023-03-15T15:47:40.011Z,2.03
2023-03-15T15:52:33.573Z,1.15
2023-03-15T15:57:26.635Z,1.23
2023-03-15T16:02:22.328Z,1.00
2023-03-15T16:07:15.441Z,1.40
2023-03-15T16:12:13.914Z,1.05
2023-03-15T16:17:27.540Z,1.27
2023-03-15T16:22:22.602Z,1.00
2023-03-15T16:27:18.441Z,1.13
2023-03-15T16:32:32.843Z,1.30
2023-03-15T16:37:32.997Z,2.65
2023-03-15T16:42:25.856Z,1.63
2023-03-15T16:47:18.038Z,2.60
2023-03-15T16:52:11.786Z,1.70
2023-03-15T16:57:03.808Z,1.63
2023-03-15T17:01:55.624Z,1.42
2023-03-15T17:11:46.726Z,1.55
2023-03-15T17:16:38.433Z,1.48
2023-03-15T17:21:34.821Z,1.20
2023-03-15T17:26:31.608Z,1.00
2023-03-15T17:31:25.726Z,1.17
2023-03-15T17:36:24.611Z,1.40
2023-03-15T17:41:21.493Z,1.40
2023-03-15T17:46:13.665Z,1.00
2023-03-15T17:51:06.122Z,1.30
2023-03-15T17:55:57.726Z,1.50
2023-03-15T18:00:56.333Z,1.27
2023-03-15T18:05:48.042Z,1.20
2023-03-15T18:10:41.988Z,1.58
2023-03-15T18:15:34.173Z,1.30
2023-03-15T18:20:26.114Z,1.50
2023-03-15T18:25:25.345Z,1.25
2023-03-15T18:30:19.258Z,1.58
2023-03-15T18:35:16.164Z,0.90
2023-03-15T18:40:08.900Z,1.20
2023-03-15T18:45:01.060Z,1.42
2023-03-15T18:49:55.492Z,1.10
2023-03-15T18:54:53.189Z,1.65
2023-03-15T18:59:44.983Z,1.08
2023-03-15T19:04:36.974Z,1.77
2023-03-15T19:09:28.862Z,1.38
2023-03-15T19:14:21.078Z,2.00
2023-03-15T19:19:17.066Z,1.50
2023-03-15T19:24:09.315Z,1.23
2023-03-15T19:29:03.593Z,1.38
2023-03-15T19:33:55.682Z,1.42
2023-03-15T19:38:47.395Z,1.48
2023-03-15T19:43:42.409Z,1.52
2023-03-15T19:48:36.068Z,1.70
2023-03-15T19:53:28.596Z,2.67
2023-03-15T19:58:20.278Z,1.73
2023-03-15T20:03:12.822Z,2.08
2023-03-15T20:08:04.840Z,5.13
2023-03-15T20:12:59.318Z,1.70
2023-03-15T20:17:51.568Z,2.17
2023-03-15T20:22:45.071Z,2.38
2023-03-15T20:27:37.438Z,1.88
2023-03-15T20:32:29.917Z,1.80
2023-03-15T20:37:23.234Z,1.80
2023-03-15T20:42:15.028Z,1.50
2023-03-15T20:47:06.770Z,1.70
2023-03-15T20:51:59.584Z,1.52
2023-03-15T20:56:51.873Z,1.50
2023-03-15T21:01:43.630Z,1.58
2023-03-15T21:06:35.409Z,2.13
2023-03-15T21:11:27.427Z,1.58
2023-03-15T21:16:19.168Z,1.95
2023-03-15T21:21:12.200Z,2.08
2023-03-15T21:26:07.477Z,2.17
2023-03-15T21:31:00.043Z,2.08
2023-03-15T21:35:52.010Z,3.17
2023-03-15T21:40:48.015Z,2.47
2023-03-15T21:45:41.225Z,2.22
2023-03-15T21:50:33.120Z,2.40
2023-03-15T21:55:25.065Z,3.17
2023-03-15T22:00:18.506Z,2.67
2023-03-15T22:05:13.616Z,3.38
2023-03-15T22:10:06.345Z,2.65
2023-03-15T22:15:05.324Z,2.65
2023-03-15T22:19:57.438Z,3.08
2023-03-15T22:24:49.585Z,3.92
2023-03-15T22:29:41.818Z,2.88
2023-03-15T22:34:34.325Z,2.42
2023-03-15T22:39:26.309Z,2.55
2023-03-15T22:44:17.943Z,3.83
2023-03-15T22:49:09.711Z,2.78
2023-03-15T22:54:01.693Z,2.92
2023-03-15T22:58:55.770Z,3.60
2023-03-15T23:03:47.383Z,3.35
2023-03-15T23:08:39.079Z,3.78
2023-03-15T23:13:31.193Z,3.63
2023-03-15T23:18:22.804Z,5.15
2023-03-15T23:23:14.420Z,4.78
2023-03-15T23:28:07.423Z,4.57
2023-03-15T23:33:00.311Z,4.47
2023-03-15T23:37:53.243Z,3.83
2023-03-15T23:42:45.004Z,3.83
2023-03-15T23:47:36.973Z,4.10
2023-03-15T23:52:29.100Z,3.67
2023-03-15T23:57:21.155Z,3.35
